Time;durP1;ratioP1;P1;durP2;ratioP2;P2;SDS_P1;SDS_P2;PMS_P1;PMS_P2;Temp;Humidity;BMP_temperature;BMP_pressure;BME280_temperature;BME280_humidity;BME280_pressure;Samples;Min_cycle;Max_cycle;Signal;HPM_P1;HPM_P2
2022/09/18 00:01:15;;;;;;;0.70;0.70;;;20.20;66.70;;;;;;5035097;28;20214;-70
2022/09/18 00:03:43;;;;;;;1.23;0.75;;;20.20;66.60;;;;;;5051609;28;20531;-70
2022/09/18 00:06:19;;;;;;;1.05;0.70;;;20.20;66.60;;;;;;5018538;28;20211;-70
2022/09/18 00:08:47;;;;;;;1.52;0.90;;;20.20;66.60;;;;;;5067968;28;20206;-70
2022/09/18 00:11:15;;;;;;;0.63;0.55;;;20.10;66.50;;;;;;5051356;28;20210;-70
2022/09/18 00:13:42;;;;;;;1.10;0.82;;;20.20;66.90;;;;;;5051530;28;20179;-70
2022/09/18 00:16:11;;;;;;;0.70;0.70;;;20.10;66.70;;;;;;5014626;28;20199;-70
2022/09/18 00:18:38;;;;;;;1.00;0.90;;;20.10;66.50;;;;;;5030996;28;20212;-70
2022/09/18 00:21:15;;;;;;;0.70;0.70;;;20.10;66.70;;;;;;5031424;28;20204;-70
2022/09/18 00:23:41;;;;;;;0.98;0.70;;;20.20;66.80;;;;;;5015204;28;20203;-70
2022/09/18 00:26:10;;;;;;;1.27;0.85;;;20.20;66.80;;;;;;5031904;28;20303;-70
2022/09/18 00:28:36;;;;;;;1.58;0.70;;;20.10;66.60;;;;;;5031921;28;20255;-70
2022/09/18 00:31:20;;;;;;;0.90;0.80;;;20.10;66.70;;;;;;5014942;28;20200;-70
2022/09/18 00:33:46;;;;;;;1.27;0.70;;;20.10;66.60;;;;;;5031587;28;20188;-71
2022/09/18 00:36:17;;;;;;;0.90;0.80;;;20.10;66.50;;;;;;5034833;28;20184;-70
2022/09/18 00:38:45;;;;;;;1.10;0.90;;;20.10;66.50;;;;;;5019206;28;20203;-70
2022/09/18 00:41:17;;;;;;;1.17;0.80;;;20.10;66.50;;;;;;5034926;28;20295;-70
2022/09/18 00:43:43;;;;;;;0.70;0.70;;;20.20;67.40;;;;;;5018441;28;20184;-70
2022/09/18 00:46:32;;;;;;;1.23;0.85;;;20.10;66.50;;;;;;5051192;28;20216;-70
2022/09/18 00:49:18;;;;;;;1.08;0.60;;;20.10;66.60;;;;;;5018379;28;20180;-70
2022/09/18 00:51:47;;;;;;;0.73;0.70;;;20.10;66.70;;;;;;5021396;28;20210;-70
2022/09/18 00:54:38;;;;;;;0.60;0.60;;;20.10;66.60;;;;;;5038183;28;20175;-70
2022/09/18 00:57:11;;;;;;;0.70;0.55;;;20.10;66.60;;;;;;5038029;28;20194;-70
2022/09/18 00:59:42;;;;;;;0.75;0.60;;;20.10;66.60;;;;;;5055189;28;20179;-70
2022/09/18 01:02:08;;;;;;;0.80;0.73;;;20.10;66.40;;;;;;5055222;28;20215;-70
2022/09/18 01:04:34;;;;;;;1.25;0.40;;;20.10;66.40;;;;;;5039652;28;20661;-70
2022/09/18 01:07:15;;;;;;;1.83;0.82;;;20.10;66.40;;;;;;5054982;28;20229;-70
2022/09/18 01:10:06;;;;;;;0.88;0.70;;;20.10;66.50;;;;;;5055059;28;20190;-70
2022/09/18 01:12:55;;;;;;;1.27;0.73;;;20.10;66.60;;;;;;5038355;28;20211;-70
2022/09/18 01:15:49;;;;;;;0.90;0.70;;;20.10;66.50;;;;;;5055353;28;20687;-70
2022/09/18 01:18:48;;;;;;;1.02;0.70;;;20.10;66.60;;;;;;5039804;28;20183;-70
2022/09/18 01:21:34;;;;;;;1.08;0.60;;;20.10;66.50;;;;;;5040624;28;20207;-70
2022/09/18 01:24:41;;;;;;;0.95;0.60;;;20.10;66.60;;;;;;5038154;28;20203;-70
2022/09/18 01:27:20;;;;;;;0.70;0.70;;;20.10;66.60;;;;;;5057302;28;20260;-70
2022/09/18 01:30:05;;;;;;;0.85;0.52;;;20.10;66.50;;;;;;5073796;28;20193;-70
2022/09/18 01:32:51;;;;;;;0.80;0.50;;;20.10;66.50;;;;;;5020732;28;20219;-70
2022/09/18 01:35:31;;;;;;;1.48;0.63;;;20.10;66.70;;;;;;5038143;28;20183;-70
2022/09/18 01:38:37;;;;;;;1.17;0.80;;;20.10;66.60;;;;;;5054362;28;20179;-70
2022/09/18 01:41:12;;;;;;;0.77;0.70;;;20.10;66.60;;;;;;5060486;28;20211;-70
2022/09/18 01:43:41;;;;;;;0.90;0.57;;;20.10;66.80;;;;;;5021121;28;20191;-70
2022/09/18 01:46:15;;;;;;;0.80;0.60;;;20.10;66.50;;;;;;5036640;28;20710;-70
2022/09/18 01:48:57;;;;;;;1.08;0.70;;;20.10;66.40;;;;;;5037380;28;20177;-70
2022/09/18 01:51:43;;;;;;;0.60;0.60;;;20.10;66.40;;;;;;5037212;28;20206;-70
2022/09/18 01:54:22;;;;;;;1.45;0.63;;;20.10;66.50;;;;;;5037057;28;20215;-70
2022/09/18 01:56:56;;;;;;;0.70;0.65;;;20.10;66.40;;;;;;5054129;28;20187;-70
2022/09/18 01:59:34;;;;;;;0.88;0.60;;;20.10;66.60;;;;;;5037778;28;20187;-70
2022/09/18 02:02:17;;;;;;;1.40;0.60;;;20.10;66.70;;;;;;5037416;28;20357;-70
2022/09/18 02:04:48;;;;;;;0.85;0.50;;;20.10;66.60;;;;;;5037315;28;20183;-70
2022/09/18 02:07:25;;;;;;;2.05;0.52;;;20.10;66.40;;;;;;5053913;28;20211;-70
2022/09/18 02:09:51;;;;;;;1.00;0.77;;;20.10;66.40;;;;;;5037787;28;20262;-70
2022/09/18 02:12:22;;;;;;;0.77;0.40;;;20.10;66.40;;;;;;5020121;28;20203;-70
2022/09/18 02:14:56;;;;;;;1.52;0.80;;;20.10;66.40;;;;;;5034303;28;20192;-70
2022/09/18 02:18:00;;;;;;;0.75;0.60;;;20.10;66.50;;;;;;5036620;28;20240;-70
2022/09/18 02:20:37;;;;;;;0.82;0.60;;;20.00;66.40;;;;;;5037310;28;20183;-70
2022/09/18 02:23:06;;;;;;;0.80;0.80;;;20.00;66.50;;;;;;5037021;28;20286;-70
2022/09/18 02:25:46;;;;;;;0.95;0.60;;;20.00;66.40;;;;;;5037263;28;20211;-70
2022/09/18 02:28:18;;;;;;;0.85;0.60;;;20.00;66.40;;;;;;5037217;28;20615;-70
2022/09/18 02:30:44;;;;;;;0.68;0.52;;;20.10;66.40;;;;;;5036726;28;20179;-70
2022/09/18 02:33:36;;;;;;;1.02;0.70;;;20.00;66.30;;;;;;5020497;28;20262;-70
2022/09/18 02:36:10;;;;;;;0.82;0.80;;;20.00;66.30;;;;;;5037032;28;20651;-70
2022/09/18 02:39:17;;;;;;;0.85;0.68;;;20.00;66.30;;;;;;5037259;28;20228;-70
2022/09/18 02:42:09;;;;;;;1.00;0.68;;;20.00;66.30;;;;;;5036419;28;20209;-70
2022/09/18 02:45:02;;;;;;;0.82;0.55;;;20.00;66.40;;;;;;5036788;28;20233;-70
2022/09/18 02:47:41;;;;;;;0.55;0.52;;;20.00;66.40;;;;;;5037382;28;20277;-70
2022/09/18 02:50:27;;;;;;;0.82;0.70;;;20.00;66.30;;;;;;5036750;28;20175;-70
2022/09/18 02:53:16;;;;;;;0.60;0.60;;;20.00;66.30;;;;;;5036680;28;20289;-70
2022/09/18 02:56:01;;;;;;;0.80;0.60;;;20.00;66.40;;;;;;5036585;28;20559;-70
2022/09/18 02:58:47;;;;;;;0.77;0.55;;;20.00;66.30;;;;;;5049324;28;20215;-70
2022/09/18 03:01:17;;;;;;;0.85;0.77;;;20.00;66.20;;;;;;5036055;28;20207;-70
2022/09/18 03:03:43;;;;;;;1.23;0.60;;;20.10;66.40;;;;;;5036457;28;20179;-70
2022/09/18 03:06:10;;;;;;;0.95;0.75;;;20.00;66.20;;;;;;5020146;28;20290;-70
2022/09/18 03:08:37;;;;;;;0.50;0.50;;;20.00;66.20;;;;;;5036255;28;20199;-70
2022/09/18 03:11:05;;;;;;;0.47;0.47;;;20.00;66.20;;;;;;5036681;28;20196;-70
2022/09/18 03:13:31;;;;;;;0.80;0.57;;;20.00;66.40;;;;;;5036064;28;20191;-70
2022/09/18 03:15:57;;;;;;;0.75;0.60;;;20.00;66.50;;;;;;5036219;28;20241;-70
2022/09/18 03:18:25;;;;;;;1.17;0.63;;;20.00;66.30;;;;;;5036740;28;20183;-70
2022/09/18 03:20:53;;;;;;;0.45;0.45;;;20.00;66.30;;;;;;5035967;28;20202;-70
2022/09/18 03:23:19;;;;;;;1.05;0.70;;;20.00;66.40;;;;;;5036544;28;20202;-70
2022/09/18 03:25:50;;;;;;;0.98;0.55;;;20.00;66.40;;;;;;5036068;28;20215;-70
2022/09/18 03:28:18;;;;;;;0.60;0.50;;;20.00;66.30;;;;;;5053604;28;20203;-70
2022/09/18 03:30:44;;;;;;;0.50;0.50;;;20.00;66.40;;;;;;5052633;28;20210;-70
2022/09/18 03:33:12;;;;;;;1.10;0.60;;;20.00;66.30;;;;;;5036669;28;20179;-70
2022/09/18 03:35:41;;;;;;;0.85;0.50;;;20.00;66.40;;;;;;5053141;28;20187;-70
2022/09/18 03:38:07;;;;;;;0.68;0.63;;;20.00;66.30;;;;;;5037115;28;20179;-70
2022/09/18 03:40:33;;;;;;;0.68;0.68;;;20.00;66.10;;;;;;5036647;28;20194;-70
2022/09/18 03:43:03;;;;;;;1.48;0.93;;;20.00;66.20;;;;;;5036639;28;20192;-70
2022/09/18 03:45:30;;;;;;;1.17;0.50;;;20.00;67.00;;;;;;5053485;28;20211;-70
2022/09/18 03:47:56;;;;;;;1.30;0.77;;;20.00;66.20;;;;;;5053905;28;20190;-70
2022/09/18 03:50:23;;;;;;;1.27;0.65;;;20.00;66.10;;;;;;5053743;28;20198;-70
2022/09/18 03:52:49;;;;;;;0.60;0.40;;;20.00;66.20;;;;;;5036739;28;20211;-70
2022/09/18 03:55:36;;;;;;;0.60;0.40;;;20.00;66.20;;;;;;5053005;28;20183;-70
2022/09/18 03:58:20;;;;;;;0.65;0.60;;;20.00;66.20;;;;;;5038291;28;20206;-70
2022/09/18 04:01:05;;;;;;;0.60;0.55;;;20.00;66.30;;;;;;5050662;28;20222;-70
2022/09/18 04:03:44;;;;;;;0.73;0.60;;;20.00;66.30;;;;;;5036919;28;20187;-70
2022/09/18 04:06:28;;;;;;;1.05;0.60;;;20.00;66.30;;;;;;5037817;28;20245;-70
2022/09/18 04:09:10;;;;;;;0.77;0.70;;;20.00;66.10;;;;;;5053653;28;20248;-70
2022/09/18 04:11:42;;;;;;;0.60;0.60;;;20.00;66.10;;;;;;5041418;28;20203;-70
2022/09/18 04:14:08;;;;;;;1.10;0.55;;;20.00;66.20;;;;;;5041421;28;20190;-70
2022/09/18 04:16:34;;;;;;;1.38;0.57;;;19.90;66.10;;;;;;5040964;28;20187;-70
2022/09/18 04:19:00;;;;;;;0.45;0.45;;;20.00;66.20;;;;;;5041348;28;20195;-70
2022/09/18 04:21:26;;;;;;;0.50;0.50;;;20.00;66.30;;;;;;5041544;28;20199;-70
2022/09/18 04:23:52;;;;;;;0.40;0.40;;;20.00;66.20;;;;;;5043088;28;20202;-70
2022/09/18 04:26:18;;;;;;;0.60;0.60;;;20.00;66.30;;;;;;5045730;28;20218;-70
2022/09/18 04:28:51;;;;;;;0.95;0.60;;;20.00;66.20;;;;;;5044661;28;20179;-70
2022/09/18 04:31:18;;;;;;;0.70;0.70;;;20.00;66.30;;;;;;5038585;28;20678;-70
2022/09/18 04:33:45;;;;;;;0.68;0.50;;;20.00;66.30;;;;;;5039087;28;20202;-69
2022/09/18 04:36:11;;;;;;;1.08;0.60;;;20.00;66.20;;;;;;5055123;28;20184;-70
2022/09/18 04:38:38;;;;;;;0.52;0.50;;;20.00;66.20;;;;;;5037963;28;20193;-70
2022/09/18 04:41:04;;;;;;;1.10;0.80;;;20.00;66.20;;;;;;5038013;28;20257;-70
2022/09/18 04:43:30;;;;;;;0.70;0.70;;;20.00;66.10;;;;;;5054631;28;20611;-70
2022/09/18 04:45:57;;;;;;;0.82;0.63;;;20.00;66.10;;;;;;5036523;28;20214;-70
2022/09/18 04:48:23;;;;;;;0.60;0.60;;;20.00;66.10;;;;;;5038449;28;20183;-69
2022/09/18 04:50:50;;;;;;;0.75;0.55;;;20.00;66.10;;;;;;5038458;28;20682;-70
2022/09/18 04:53:17;;;;;;;0.57;0.57;;;20.00;66.10;;;;;;5037988;28;20187;-70
2022/09/18 04:55:46;;;;;;;1.13;0.50;;;20.00;66.10;;;;;;5037382;28;20189;-70
2022/09/18 04:58:17;;;;;;;1.33;0.70;;;19.90;66.00;;;;;;5038502;28;20191;-70
2022/09/18 05:00:47;;;;;;;0.63;0.60;;;19.90;65.90;;;;;;5054373;28;20266;-70
2022/09/18 05:03:13;;;;;;;0.73;0.57;;;19.90;66.10;;;;;;5037952;28;20191;-70
2022/09/18 05:05:40;;;;;;;0.68;0.63;;;19.90;66.10;;;;;;5034813;28;20254;-70
2022/09/18 05:08:08;;;;;;;0.40;0.40;;;19.90;66.00;;;;;;5034848;28;20184;-70
2022/09/18 05:10:34;;;;;;;1.05;0.50;;;19.90;66.10;;;;;;5017473;28;20180;-70
2022/09/18 05:13:02;;;;;;;0.65;0.60;;;19.90;66.10;;;;;;5034117;28;20278;-70
2022/09/18 05:15:28;;;;;;;1.23;0.60;;;19.90;66.10;;;;;;5017507;28;20184;-70
2022/09/18 05:18:04;;;;;;;0.65;0.50;;;20.00;66.20;;;;;;5051287;28;20265;-70
2022/09/18 05:20:32;;;;;;;0.60;0.50;;;19.90;66.00;;;;;;5050483;28;20268;-69
2022/09/18 05:23:03;;;;;;;0.35;0.32;;;19.90;66.00;;;;;;5017047;28;20191;-70
2022/09/18 05:25:29;;;;;;;1.20;0.45;;;19.90;66.10;;;;;;5033802;28;20382;-70
2022/09/18 05:27:59;;;;;;;0.55;0.55;;;19.90;66.00;;;;;;5034459;28;20618;-70
2022/09/18 05:30:30;;;;;;;0.52;0.52;;;19.90;66.00;;;;;;5017421;28;20223;-70
2022/09/18 05:33:06;;;;;;;0.60;0.60;;;19.90;66.00;;;;;;5034701;28;20188;-70
2022/09/18 05:35:35;;;;;;;1.13;0.70;;;19.90;66.00;;;;;;5034185;28;20234;-70
2022/09/18 05:38:03;;;;;;;1.02;0.40;;;19.90;66.00;;;;;;5034514;28;20188;-70
2022/09/18 05:40:36;;;;;;;0.57;0.43;;;19.90;65.90;;;;;;5050529;28;20207;-70
2022/09/18 05:43:03;;;;;;;0.45;0.40;;;19.90;66.90;;;;;;5000801;28;20218;-70
2022/09/18 05:45:31;;;;;;;0.30;0.30;;;19.90;66.10;;;;;;5018882;28;20216;-70
2022/09/18 05:48:04;;;;;;;0.50;0.50;;;19.90;66.00;;;;;;5019271;28;20176;-70
2022/09/18 05:50:35;;;;;;;0.40;0.40;;;19.90;66.00;;;;;;5018702;28;20230;-70
2022/09/18 05:53:27;;;;;;;1.20;0.82;;;19.90;66.10;;;;;;5018514;28;20184;-70
2022/09/18 05:56:20;;;;;;;0.90;0.35;;;19.90;66.00;;;;;;5012506;28;20237;-70
2022/09/18 05:58:46;;;;;;;0.95;0.50;;;19.90;65.90;;;;;;5018697;28;20219;-70
2022/09/18 06:01:13;;;;;;;0.57;0.52;;;19.90;65.90;;;;;;5018762;28;20208;-70
2022/09/18 06:04:08;;;;;;;0.63;0.40;;;19.90;66.00;;;;;;5018148;28;20196;-70
2022/09/18 06:07:00;;;;;;;0.57;0.57;;;19.90;66.00;;;;;;5019055;28;20242;-70
2022/09/18 06:09:26;;;;;;;0.40;0.40;;;19.90;66.10;;;;;;5017295;28;20189;-70
2022/09/18 06:11:52;;;;;;;0.57;0.50;;;19.90;66.10;;;;;;5031664;28;20308;-70
2022/09/18 06:14:18;;;;;;;0.82;0.52;;;19.90;66.10;;;;;;5050950;28;20257;-69
2022/09/18 06:16:45;;;;;;;0.52;0.40;;;19.90;66.00;;;;;;5050727;28;20183;-70
2022/09/18 06:19:12;;;;;;;1.25;0.65;;;19.90;66.00;;;;;;5019697;28;20190;-70
2022/09/18 06:21:40;;;;;;;0.90;0.38;;;19.90;66.00;;;;;;5018662;28;20420;-70
2022/09/18 06:24:08;;;;;;;0.98;0.85;;;19.90;66.00;;;;;;5016505;28;20191;-70
2022/09/18 06:26:40;;;;;;;0.75;0.52;;;19.90;66.00;;;;;;5035395;28;20300;-70
2022/09/18 06:29:06;;;;;;;0.63;0.60;;;19.90;66.00;;;;;;5035757;28;20211;-70
2022/09/18 06:31:43;;;;;;;1.98;0.70;;;19.90;66.00;;;;;;5035843;28;20294;-70
2022/09/18 06:34:11;;;;;;;0.73;0.60;;;19.90;66.00;;;;;;5028288;28;20222;-70
2022/09/18 06:36:38;;;;;;;1.13;0.70;;;19.90;66.00;;;;;;5035169;28;20187;-70
2022/09/18 06:39:23;;;;;;;0.70;0.70;;;19.90;66.00;;;;;;5064039;28;20221;-70
2022/09/18 06:41:53;;;;;;;0.73;0.50;;;19.90;66.00;;;;;;5035248;28;20207;-70
2022/09/18 06:44:30;;;;;;;0.82;0.77;;;19.90;66.00;;;;;;5035265;28;20254;-70
2022/09/18 06:47:04;;;;;;;0.45;0.45;;;19.90;66.00;;;;;;5035735;28;20222;-70
2022/09/18 06:49:38;;;;;;;0.60;0.60;;;19.90;66.00;;;;;;5035583;28;20201;-70
2022/09/18 06:52:04;;;;;;;0.50;0.50;;;19.90;66.00;;;;;;5035392;28;20207;-70
2022/09/18 06:54:32;;;;;;;0.60;0.60;;;19.90;66.00;;;;;;5035670;28;20198;-70
2022/09/18 06:57:00;;;;;;;0.70;0.70;;;19.90;65.90;;;;;;5052139;28;20188;-70
2022/09/18 06:59:28;;;;;;;1.40;0.80;;;19.90;66.00;;;;;;5034813;28;20270;-70
2022/09/18 07:01:54;;;;;;;0.70;0.70;;;19.90;65.90;;;;;;5034563;28;20238;-70
2022/09/18 07:04:34;;;;;;;1.42;0.75;;;19.90;65.90;;;;;;5034929;28;20206;-70
2022/09/18 07:07:00;;;;;;;0.70;0.70;;;19.90;65.90;;;;;;5034847;28;20219;-70
2022/09/18 07:09:27;;;;;;;1.17;0.70;;;19.90;66.00;;;;;;5034959;28;20210;-70
2022/09/18 07:12:02;;;;;;;0.88;0.80;;;19.90;65.90;;;;;;5034771;28;20198;-70
2022/09/18 07:14:42;;;;;;;0.60;0.60;;;19.90;66.90;;;;;;5035125;28;20241;-70
2022/09/18 07:17:11;;;;;;;0.88;0.70;;;19.90;66.00;;;;;;5018822;28;20191;-70
2022/09/18 07:23:43;;;;;;;1.10;0.60;;;19.90;66.00;;;;;;5032413;28;20233;-70
2022/09/18 07:26:10;;;;;;;0.60;0.60;;;19.90;66.00;;;;;;5039153;28;20586;-69
2022/09/18 07:28:36;;;;;;;0.88;0.77;;;19.90;66.00;;;;;;5037098;28;20182;-69
2022/09/18 07:31:19;;;;;;;0.77;0.55;;;19.90;66.00;;;;;;5036841;28;20203;-70
2022/09/18 07:33:53;;;;;;;0.70;0.70;;;19.90;66.00;;;;;;5036984;28;20187;-69
2022/09/18 07:36:21;;;;;;;0.68;0.60;;;19.90;66.00;;;;;;5037323;28;20224;-69
2022/09/18 07:38:50;;;;;;;0.88;0.80;;;19.90;65.90;;;;;;5037447;28;20629;-69
2022/09/18 07:41:18;;;;;;;0.60;0.60;;;19.90;65.90;;;;;;5040747;28;20204;-69
2022/09/18 07:43:48;;;;;;;1.38;0.73;;;19.80;65.70;;;;;;5034303;28;20194;-69
2022/09/18 07:46:13;;;;;;;1.13;0.68;;;19.90;65.90;;;;;;5049989;28;20211;-69
2022/09/18 07:48:39;;;;;;;0.77;0.68;;;19.90;65.90;;;;;;5050652;28;20180;-69
2022/09/18 07:51:11;;;;;;;1.17;0.60;;;19.90;65.90;;;;;;5033778;28;20254;-69
2022/09/18 07:53:38;;;;;;;1.30;0.90;;;19.90;65.90;;;;;;5034808;28;20236;-69
2022/09/18 07:56:10;;;;;;;0.50;0.50;;;19.90;66.00;;;;;;5034016;28;20188;-69
2022/09/18 07:58:37;;;;;;;0.52;0.52;;;19.90;66.00;;;;;;5033851;28;20191;-69
2022/09/18 08:01:06;;;;;;;1.67;0.88;;;19.90;66.00;;;;;;5033924;28;20200;-69
2022/09/18 08:03:39;;;;;;;1.35;0.50;;;19.90;66.00;;;;;;5051155;28;20191;-69
2022/09/18 08:06:25;;;;;;;0.80;0.65;;;19.90;65.90;;;;;;5018401;28;20733;-69
2022/09/18 08:09:13;;;;;;;0.70;0.70;;;19.90;65.90;;;;;;5041949;28;20198;-69
2022/09/18 08:11:52;;;;;;;1.02;0.70;;;19.90;65.90;;;;;;5052291;28;20224;-69
2022/09/18 08:14:37;;;;;;;1.05;0.55;;;19.90;65.90;;;;;;5037756;28;20252;-69
2022/09/18 08:17:22;;;;;;;0.60;0.60;;;19.90;65.90;;;;;;5051866;28;20206;-69
2022/09/18 08:20:20;;;;;;;1.58;0.70;;;19.90;65.90;;;;;;5037661;28;20218;-70
2022/09/18 08:22:52;;;;;;;0.70;0.55;;;19.90;65.90;;;;;;5038110;28;20270;-69
2022/09/18 08:25:22;;;;;;;0.80;0.80;;;19.90;66.00;;;;;;5038009;28;20187;-69
2022/09/18 08:27:48;;;;;;;0.60;0.60;;;19.90;65.90;;;;;;5038535;28;20219;-69
2022/09/18 08:30:20;;;;;;;1.95;0.95;;;19.90;65.90;;;;;;5038252;28;20183;-69
2022/09/18 08:32:56;;;;;;;1.15;0.70;;;19.90;65.90;;;;;;5037071;28;20206;-69
2022/09/18 08:35:22;;;;;;;1.38;0.80;;;19.90;65.90;;;;;;5053978;28;20222;-69
2022/09/18 08:37:49;;;;;;;1.88;0.60;;;19.90;65.80;;;;;;5037872;28;20179;-69
2022/09/18 08:41:05;;;;;;;1.13;0.60;;;19.90;65.90;;;;;;5037870;28;20186;-69
2022/09/18 08:43:53;;;;;;;1.67;0.95;;;19.90;65.90;;;;;;5039628;28;20201;-69
2022/09/18 08:46:47;;;;;;;1.23;0.77;;;19.90;65.90;;;;;;5039984;28;20291;-69
2022/09/18 08:49:33;;;;;;;0.55;0.55;;;19.90;65.80;;;;;;5041523;28;20210;-69
2022/09/18 08:52:19;;;;;;;0.73;0.70;;;19.90;65.80;;;;;;5035544;28;20212;-69
2022/09/18 08:55:20;;;;;;;0.70;0.70;;;19.90;65.90;;;;;;5035906;28;20183;-70
2022/09/18 08:58:19;;;;;;;0.80;0.50;;;19.90;65.90;;;;;;5039603;28;20198;-69
2022/09/18 09:00:58;;;;;;;0.90;0.70;;;19.90;65.90;;;;;;5039304;28;20191;-69
2022/09/18 09:03:58;;;;;;;1.50;0.85;;;19.90;65.80;;;;;;5038456;28;20266;-70
2022/09/18 09:06:56;;;;;;;0.90;0.80;;;19.90;65.90;;;;;;5054599;28;20357;-69
2022/09/18 09:09:48;;;;;;;1.55;0.50;;;19.90;65.90;;;;;;5023330;28;20271;-70
2022/09/18 09:12:38;;;;;;;0.60;0.55;;;19.90;65.80;;;;;;5040298;28;20226;-69
2022/09/18 09:15:13;;;;;;;0.63;0.60;;;19.90;65.80;;;;;;5055594;28;20237;-70
2022/09/18 09:18:08;;;;;;;1.00;0.80;;;19.90;65.70;;;;;;5021983;28;20198;-69
2022/09/18 09:20:55;;;;;;;0.98;0.60;;;19.90;65.80;;;;;;5018772;28;20184;-69
2022/09/18 09:24:05;;;;;;;0.50;0.50;;;20.00;65.80;;;;;;5003368;28;20195;-69
2022/09/18 09:26:56;;;;;;;1.20;0.63;;;20.00;65.90;;;;;;5017914;28;20278;-69
2022/09/18 09:29:43;;;;;;;0.60;0.60;;;19.90;65.70;;;;;;5018397;28;20192;-69
2022/09/18 09:32:32;;;;;;;0.63;0.57;;;20.00;65.90;;;;;;5035204;28;20211;-69
2022/09/18 09:35:15;;;;;;;1.17;0.60;;;19.90;65.70;;;;;;5018718;28;20184;-69
2022/09/18 09:38:03;;;;;;;1.30;0.60;;;20.00;65.90;;;;;;5018623;28;20188;-69
2022/09/18 09:40:43;;;;;;;0.90;0.70;;;19.90;65.80;;;;;;5021719;28;20194;-69
2022/09/18 09:43:51;;;;;;;1.45;0.75;;;19.90;65.70;;;;;;5038361;28;20257;-69
2022/09/18 09:46:45;;;;;;;0.60;0.60;;;20.00;66.00;;;;;;5038447;28;20223;-69
2022/09/18 09:49:24;;;;;;;0.98;0.70;;;19.90;65.80;;;;;;5038865;28;20183;-69
2022/09/18 09:52:27;;;;;;;0.57;0.50;;;20.00;65.80;;;;;;5038564;28;20234;-69
2022/09/18 09:55:23;;;;;;;0.55;0.55;;;20.00;65.80;;;;;;5038371;28;20179;-69
2022/09/18 09:58:29;;;;;;;1.38;1.00;;;20.00;65.90;;;;;;5038763;28;20183;-69
2022/09/18 10:01:09;;;;;;;1.35;0.80;;;20.00;65.80;;;;;;5038117;28;20206;-69
2022/09/18 10:03:46;;;;;;;0.95;0.95;;;20.00;65.90;;;;;;5038020;28;20175;-69
2022/09/18 10:06:29;;;;;;;1.25;0.90;;;20.00;65.80;;;;;;5054490;28;20215;-69
2022/09/18 10:09:10;;;;;;;0.70;0.70;;;20.00;65.90;;;;;;5038972;28;20203;-69
2022/09/18 10:11:41;;;;;;;2.13;0.80;;;20.00;65.80;;;;;;5037156;28;20262;-69
2022/09/18 10:14:18;;;;;;;0.85;0.80;;;20.00;65.70;;;;;;5037778;28;20183;-69
2022/09/18 10:16:52;;;;;;;1.00;1.00;;;20.00;65.70;;;;;;5021424;28;20193;-70
2022/09/18 10:19:21;;;;;;;0.85;0.85;;;20.00;65.80;;;;;;5020710;28;20187;-69
2022/09/18 10:21:52;;;;;;;1.58;0.80;;;20.00;65.70;;;;;;5020337;28;20203;-69
2022/09/18 10:24:26;;;;;;;0.50;0.50;;;20.00;65.70;;;;;;5037221;28;20195;-69
2022/09/18 10:27:11;;;;;;;1.35;0.77;;;20.00;65.70;;;;;;5037234;28;20234;-69
2022/09/18 10:29:39;;;;;;;0.85;0.75;;;20.00;65.60;;;;;;5020851;28;20186;-69
2022/09/18 10:32:10;;;;;;;0.93;0.70;;;20.00;65.70;;;;;;5036865;28;20195;-69
2022/09/18 10:34:44;;;;;;;1.08;0.90;;;20.00;65.70;;;;;;5036872;28;20603;-69
2022/09/18 10:37:16;;;;;;;0.73;0.73;;;20.00;65.70;;;;;;5037506;28;20187;-69
2022/09/18 10:39:51;;;;;;;1.08;0.77;;;20.00;65.70;;;;;;5037234;28;20190;-69
2022/09/18 10:42:25;;;;;;;1.08;0.70;;;20.00;65.70;;;;;;5035145;28;20203;-69
2022/09/18 10:45:05;;;;;;;0.80;0.77;;;20.00;65.70;;;;;;5053561;28;20183;-69
2022/09/18 10:47:36;;;;;;;0.75;0.68;;;20.00;65.70;;;;;;5021205;28;20237;-69
2022/09/18 10:50:18;;;;;;;1.55;1.30;;;20.00;65.60;;;;;;5037533;28;20183;-69
2022/09/18 10:52:47;;;;;;;0.82;0.57;;;20.00;65.50;;;;;;5020702;28;20199;-69
2022/09/18 10:55:27;;;;;;;1.05;0.52;;;20.00;65.60;;;;;;5037898;28;20194;-69
2022/09/18 10:58:14;;;;;;;1.05;0.90;;;20.00;65.70;;;;;;5030635;28;20175;-69
2022/09/18 11:00:55;;;;;;;0.70;0.70;;;20.00;65.40;;;;;;5037177;28;20183;-69
2022/09/18 11:03:40;;;;;;;1.55;0.73;;;20.10;65.50;;;;;;5038484;28;20187;-69
2022/09/18 11:06:24;;;;;;;0.93;0.85;;;20.10;65.50;;;;;;5036420;28;20710;-69
2022/09/18 11:08:56;;;;;;;0.90;0.90;;;20.10;65.50;;;;;;5036383;28;20195;-69
2022/09/18 11:11:35;;;;;;;1.00;0.82;;;20.10;65.50;;;;;;5037029;28;20207;-69
2022/09/18 11:14:25;;;;;;;0.57;0.50;;;20.10;65.50;;;;;;5036734;28;20181;-70
2022/09/18 11:17:01;;;;;;;1.42;0.90;;;20.10;65.50;;;;;;5036473;28;20237;-69
2022/09/18 11:19:38;;;;;;;0.80;0.80;;;20.10;65.50;;;;;;5035230;28;20186;-69
2022/09/18 11:22:41;;;;;;;0.50;0.50;;;20.10;65.50;;;;;;5036692;28;20690;-69
2022/09/18 11:25:25;;;;;;;0.60;0.60;;;20.10;65.50;;;;;;5037514;28;20190;-69
2022/09/18 11:27:58;;;;;;;0.93;0.73;;;20.10;65.30;;;;;;5019712;28;20175;-69
2022/09/18 11:30:34;;;;;;;0.75;0.60;;;20.10;65.30;;;;;;5018630;28;20709;-69
2022/09/18 11:33:21;;;;;;;0.85;0.80;;;20.10;65.30;;;;;;5028955;28;20187;-69
2022/09/18 11:35:58;;;;;;;0.57;0.57;;;20.10;65.40;;;;;;5036836;28;20191;-69
2022/09/18 11:38:26;;;;;;;1.55;0.73;;;20.10;65.40;;;;;;5035890;28;20211;-70
2022/09/18 11:40:56;;;;;;;2.45;0.98;;;20.10;65.40;;;;;;5052759;28;20462;-69
2022/09/18 11:43:37;;;;;;;0.60;0.60;;;20.10;65.40;;;;;;5038013;28;20258;-69
2022/09/18 11:46:25;;;;;;;1.10;0.80;;;20.10;65.20;;;;;;5036590;28;20213;-69
2022/09/18 11:49:17;;;;;;;0.95;0.63;;;20.10;65.20;;;;;;5036234;28;20183;-70
2022/09/18 11:51:56;;;;;;;0.70;0.60;;;20.10;65.90;;;;;;5036761;28;20294;-69
2022/09/18 11:54:50;;;;;;;1.02;0.70;;;20.10;65.20;;;;;;5036671;28;20183;-70
2022/09/18 11:57:25;;;;;;;0.77;0.77;;;20.10;65.00;;;;;;5036072;28;20182;-70
2022/09/18 11:59:59;;;;;;;0.75;0.70;;;20.10;65.10;;;;;;5053155;28;20190;-69
2022/09/18 12:02:52;;;;;;;1.23;0.82;;;20.10;65.20;;;;;;5035074;28;20710;-69
2022/09/18 12:05:34;;;;;;;1.15;0.90;;;20.00;65.00;;;;;;5036361;28;20191;-70
2022/09/18 12:08:37;;;;;;;0.75;0.75;;;20.10;65.00;;;;;;5053073;28;20210;-69
2022/09/18 12:11:30;;;;;;;1.80;0.80;;;20.10;65.10;;;;;;5036843;28;20299;-69
2022/09/18 12:14:20;;;;;;;0.98;0.60;;;20.10;65.00;;;;;;5036093;28;20187;-69
2022/09/18 12:17:24;;;;;;;0.70;0.70;;;20.10;65.00;;;;;;5036830;28;20221;-69
2022/09/18 12:20:04;;;;;;;1.15;0.70;;;20.00;65.00;;;;;;5036746;28;20651;-69
2022/09/18 12:22:47;;;;;;;1.02;0.93;;;20.10;65.00;;;;;;5035959;28;20199;-69
2022/09/18 12:25:17;;;;;;;0.93;0.80;;;20.10;65.00;;;;;;5037253;28;20183;-69
2022/09/18 12:28:29;;;;;;;0.70;0.70;;;20.10;65.00;;;;;;5036744;28;20187;-69
2022/09/18 12:31:29;;;;;;;1.15;0.80;;;20.10;65.00;;;;;;5037911;28;20210;-69
2022/09/18 12:34:32;;;;;;;0.77;0.77;;;20.10;65.00;;;;;;5040124;28;20637;-69
2022/09/18 12:37:42;;;;;;;1.13;1.02;;;20.10;65.00;;;;;;5040688;28;20272;-70
2022/09/18 12:40:22;;;;;;;0.82;0.75;;;20.10;65.10;;;;;;5041453;28;20198;-69
2022/09/18 12:43:06;;;;;;;0.70;0.70;;;20.10;65.00;;;;;;5040442;28;20211;-70
2022/09/18 12:45:51;;;;;;;0.70;0.70;;;20.10;64.90;;;;;;5041224;28;20222;-69
2022/09/18 12:48:59;;;;;;;1.00;0.88;;;20.10;64.80;;;;;;5040980;28;20179;-69
2022/09/18 12:51:41;;;;;;;0.90;0.80;;;20.10;65.00;;;;;;5040805;28;20203;-70
2022/09/18 12:54:31;;;;;;;0.90;0.70;;;20.10;65.00;;;;;;5042718;28;20183;-69
2022/09/18 12:57:12;;;;;;;0.77;0.77;;;20.10;64.80;;;;;;5038348;28;20702;-69
2022/09/18 13:00:12;;;;;;;0.70;0.70;;;20.10;64.90;;;;;;5047901;28;20195;-69
2022/09/18 13:02:55;;;;;;;0.77;0.77;;;20.10;64.90;;;;;;5061035;28;20234;-70
2022/09/18 13:05:27;;;;;;;1.05;0.85;;;20.10;64.80;;;;;;5046027;28;20194;-69
2022/09/18 13:08:20;;;;;;;0.80;0.80;;;20.10;64.70;;;;;;5037772;28;20184;-70
2022/09/18 13:10:49;;;;;;;1.42;0.80;;;20.10;64.70;;;;;;5038361;28;20184;-69
2022/09/18 13:13:43;;;;;;;0.82;0.80;;;20.10;64.60;;;;;;5039434;28;20662;-69
2022/09/18 13:16:50;;;;;;;0.70;0.70;;;20.10;64.60;;;;;;5038127;28;20187;-69
2022/09/18 13:19:27;;;;;;;1.48;1.02;;;20.10;64.70;;;;;;5035124;28;20222;-69
2022/09/18 13:22:00;;;;;;;0.82;0.70;;;20.10;64.70;;;;;;5037833;28;20214;-69
2022/09/18 13:24:34;;;;;;;0.70;0.70;;;20.10;64.70;;;;;;5037116;28;20195;-69
2022/09/18 13:27:10;;;;;;;1.42;0.90;;;20.10;64.70;;;;;;5037097;28;20326;-69
2022/09/18 13:29:57;;;;;;;1.25;0.70;;;20.10;64.50;;;;;;5038399;28;20241;-69
2022/09/18 13:32:43;;;;;;;1.10;0.90;;;20.10;64.40;;;;;;5037470;28;20203;-69
2022/09/18 13:35:12;;;;;;;1.67;1.30;;;20.10;64.60;;;;;;5036949;28;20195;-70
2022/09/18 13:37:39;;;;;;;1.35;1.10;;;20.10;64.60;;;;;;5054298;28;20195;-69
2022/09/18 13:40:43;;;;;;;1.58;1.00;;;20.10;64.60;;;;;;5038023;28;20183;-69
2022/09/18 13:43:38;;;;;;;1.60;0.90;;;20.10;64.60;;;;;;5052113;28;20187;-70
2022/09/18 13:46:06;;;;;;;0.82;0.75;;;20.10;64.50;;;;;;5036414;28;20227;-69